createdAt,value
2018-06-13T00:00:48.125Z,15.40
2018-06-13T00:03:22.305Z,15.60
2018-06-13T00:05:56.458Z,15.70
2018-06-13T00:08:30.719Z,15.70
2018-06-13T00:11:05.139Z,15.70
2018-06-13T00:13:39.410Z,15.70
2018-06-13T00:16:13.822Z,15.50
2018-06-13T00:18:48.110Z,15.60
2018-06-13T00:21:22.518Z,15.50
2018-06-13T00:23:56.720Z,15.60
2018-06-13T00:26:30.923Z,15.60
2018-06-13T00:29:05.333Z,15.70
2018-06-13T00:31:39.495Z,15.70
2018-06-13T00:34:13.695Z,15.60
2018-06-13T00:36:48.030Z,15.60
2018-06-13T00:39:22.202Z,15.70
2018-06-13T00:41:56.431Z,15.60
2018-06-13T00:44:30.667Z,15.50
2018-06-13T00:47:04.896Z,15.60
2018-06-13T00:49:38.955Z,15.50
2018-06-13T00:52:13.130Z,15.20
2018-06-13T00:54:47.458Z,15.30
2018-06-13T00:57:21.746Z,15.30
2018-06-13T00:59:56.075Z,15.20
2018-06-13T01:02:30.473Z,15.40
2018-06-13T01:05:04.659Z,15.30
2018-06-13T01:07:38.993Z,15.40
2018-06-13T01:10:13.154Z,15.40
2018-06-13T01:12:47.437Z,15.40
2018-06-13T01:15:21.600Z,15.40
2018-06-13T01:17:55.795Z,15.30
2018-06-13T01:20:30.254Z,15.10
2018-06-13T01:23:04.495Z,15.30
2018-06-13T01:25:38.892Z,15.20
2018-06-13T01:28:13.059Z,15.10
2018-06-13T01:30:47.446Z,15.20
2018-06-13T01:33:21.846Z,15.20
2018-06-13T01:35:56.090Z,14.90
2018-06-13T01:38:30.402Z,14.90
2018-06-13T01:41:04.803Z,14.80
2018-06-13T01:43:39.107Z,14.90
2018-06-13T01:46:13.514Z,15.10
2018-06-13T01:48:47.813Z,14.90
2018-06-13T01:51:22.175Z,14.90
2018-06-13T01:53:56.468Z,15.00
2018-06-13T01:56:30.703Z,15.10
2018-06-13T01:59:04.977Z,15.10
2018-06-13T02:01:39.412Z,15.10
2018-06-13T02:04:13.818Z,15.20
2018-06-13T02:06:48.092Z,15.20
2018-06-13T02:09:22.333Z,14.90
2018-06-13T02:11:56.813Z,14.90
2018-06-13T02:14:31.146Z,14.90
2018-06-13T02:17:05.667Z,14.90
2018-06-13T02:19:39.951Z,15.00
2018-06-13T02:22:14.329Z,15.00
2018-06-13T02:24:48.716Z,14.70
2018-06-13T02:27:23.118Z,15.00
2018-06-13T02:29:57.250Z,15.00
2018-06-13T02:32:31.533Z,14.80
2018-06-13T02:35:05.858Z,14.90
2018-06-13T02:37:40.063Z,14.90
2018-06-13T02:40:14.240Z,14.90
2018-06-13T02:42:48.446Z,14.90
2018-06-13T02:45:22.668Z,15.00
2018-06-13T02:47:56.946Z,15.10
2018-06-13T02:50:31.277Z,15.00
2018-06-13T02:53:05.568Z,15.00
2018-06-13T02:55:39.834Z,15.00
2018-06-13T02:58:14.270Z,15.00
2018-06-13T03:00:48.471Z,15.00
2018-06-13T03:03:22.856Z,15.10
2018-06-13T03:05:57.092Z,15.10
2018-06-13T03:08:31.482Z,15.10
2018-06-13T03:11:05.877Z,15.10
2018-06-13T03:13:40.151Z,14.90
2018-06-13T03:16:14.462Z,15.00
2018-06-13T03:21:22.816Z,15.00
2018-06-13T03:23:57.214Z,14.80
2018-06-13T03:26:31.372Z,14.90
2018-06-13T03:29:05.567Z,14.90
2018-06-13T03:31:39.761Z,15.00
2018-06-13T03:34:14.000Z,15.00
2018-06-13T03:36:48.309Z,15.00
2018-06-13T03:39:22.634Z,15.00
2018-06-13T03:41:56.794Z,15.00
2018-06-13T03:44:30.968Z,14.80
2018-06-13T03:47:05.303Z,14.90
2018-06-13T03:49:39.640Z,14.90
2018-06-13T03:52:13.905Z,14.90
2018-06-13T03:54:48.326Z,14.90
2018-06-13T03:57:22.698Z,14.90
2018-06-13T04:02:30.991Z,14.90
2018-06-13T04:05:05.303Z,14.90
2018-06-13T04:07:39.606Z,14.90
2018-06-13T04:10:13.830Z,14.90
2018-06-13T04:12:48.246Z,14.90
2018-06-13T04:15:22.490Z,14.90
2018-06-13T04:17:56.918Z,14.60
2018-06-13T04:20:31.294Z,14.70
2018-06-13T04:23:05.459Z,14.80
2018-06-13T04:25:39.602Z,14.70
2018-06-13T04:28:13.942Z,14.60
2018-06-13T04:30:48.207Z,14.70
2018-06-13T04:33:22.602Z,14.60
2018-06-13T04:35:56.822Z,14.70
2018-06-13T04:38:31.006Z,14.50
2018-06-13T04:43:39.414Z,14.60
2018-06-13T04:46:13.841Z,14.80
2018-06-13T04:48:48.220Z,14.70
2018-06-13T04:51:22.510Z,14.50
2018-06-13T04:53:56.800Z,14.80
2018-06-13T04:56:31.150Z,14.60
2018-06-13T04:59:05.342Z,14.60
2018-06-13T05:01:39.442Z,14.80
2018-06-13T05:04:13.705Z,14.90
2018-06-13T05:06:48.029Z,15.00
2018-06-13T05:09:22.280Z,15.00
2018-06-13T05:11:56.538Z,15.00
2018-06-13T05:14:30.876Z,15.00
2018-06-13T05:17:05.223Z,15.10
2018-06-13T05:19:39.586Z,15.20
2018-06-13T05:22:13.846Z,15.20
2018-06-13T05:24:48.138Z,15.20
2018-06-13T05:27:22.442Z,14.80
2018-06-13T05:29:56.652Z,15.00
2018-06-13T05:32:31.018Z,15.00
2018-06-13T05:35:05.335Z,15.00
2018-06-13T05:37:39.751Z,15.00
2018-06-13T05:40:14.062Z,15.20
2018-06-13T05:42:48.446Z,14.90
2018-06-13T05:45:22.753Z,15.00
2018-06-13T05:47:56.994Z,15.20
2018-06-13T05:50:31.208Z,15.20
2018-06-13T05:53:05.407Z,14.90
2018-06-13T05:55:39.567Z,15.10
2018-06-13T05:58:13.835Z,15.30
2018-06-13T06:00:48.001Z,15.30
2018-06-13T06:03:22.369Z,15.20
2018-06-13T06:05:56.607Z,15.20
2018-06-13T06:08:30.950Z,15.20
2018-06-13T06:11:05.235Z,15.00
2018-06-13T06:13:39.522Z,15.30
2018-06-13T06:16:13.911Z,15.10
2018-06-13T06:18:48.053Z,15.30
2018-06-13T06:21:22.525Z,15.10
2018-06-13T06:23:56.818Z,15.40
2018-06-13T06:26:30.943Z,15.40
2018-06-13T06:29:05.286Z,15.50
2018-06-13T06:31:39.569Z,15.40
2018-06-13T06:34:13.829Z,15.40
2018-06-13T06:36:48.056Z,15.50
2018-06-13T06:39:22.316Z,15.60
2018-06-13T06:41:56.520Z,15.60
2018-06-13T06:44:30.741Z,15.40
2018-06-13T06:47:05.215Z,15.40
2018-06-13T06:49:39.731Z,15.70
2018-06-13T06:52:14.006Z,15.80
2018-06-13T06:54:48.317Z,15.90
2018-06-13T06:57:22.588Z,15.90
2018-06-13T06:59:56.876Z,15.70
2018-06-13T07:02:31.151Z,15.90
2018-06-13T07:05:05.470Z,16.00
2018-06-13T07:07:39.768Z,15.90
2018-06-13T07:10:14.106Z,15.80
2018-06-13T07:12:48.398Z,15.90
2018-06-13T07:15:22.687Z,15.90
2018-06-13T07:17:57.162Z,16.00
2018-06-13T07:20:31.462Z,16.00
2018-06-13T07:23:05.852Z,16.10
2018-06-13T07:25:40.067Z,16.10
2018-06-13T07:28:14.369Z,16.20
2018-06-13T07:30:48.782Z,16.20
2018-06-13T07:33:23.207Z,15.90
2018-06-13T07:35:57.478Z,15.80
2018-06-13T07:38:31.914Z,15.70
2018-06-13T07:41:06.157Z,15.90
2018-06-13T07:43:40.403Z,15.90
2018-06-13T07:46:14.718Z,15.90
2018-06-13T07:48:48.877Z,16.10
2018-06-13T07:51:23.279Z,16.20
2018-06-13T07:53:57.570Z,15.80
2018-06-13T07:56:31.850Z,15.90
2018-06-13T07:59:06.148Z,15.70
2018-06-13T08:04:14.633Z,15.70
2018-06-13T08:06:48.982Z,15.70
2018-06-13T08:09:23.381Z,15.60
2018-06-13T08:11:57.677Z,15.30
2018-06-13T08:14:32.023Z,15.40
2018-06-13T08:17:06.196Z,15.50
2018-06-13T08:19:40.357Z,15.50
2018-06-13T08:22:14.660Z,15.60
2018-06-13T08:24:53.118Z,15.70
2018-06-13T08:27:27.467Z,15.80
2018-06-13T08:30:01.927Z,15.90
2018-06-13T08:32:36.207Z,16.00
2018-06-13T08:35:10.525Z,16.30
2018-06-13T08:37:44.814Z,16.30
2018-06-13T08:40:18.954Z,16.20
2018-06-13T08:42:53.178Z,16.30
2018-06-13T08:45:27.635Z,16.30
2018-06-13T08:48:01.906Z,16.20
2018-06-13T08:50:36.266Z,16.40
2018-06-13T08:53:10.542Z,16.40
2018-06-13T08:55:44.841Z,16.60
2018-06-13T08:58:19.098Z,16.70
2018-06-13T09:00:53.378Z,16.60
2018-06-13T09:03:27.584Z,16.80
2018-06-13T09:06:01.837Z,16.60
2018-06-13T09:08:36.053Z,16.60
2018-06-13T09:11:10.343Z,16.50
2018-06-13T09:13:44.667Z,16.80
2018-06-13T09:16:18.975Z,16.90
2018-06-13T09:18:53.247Z,17.10
2018-06-13T09:21:27.634Z,17.00
2018-06-13T09:24:01.903Z,17.10
2018-06-13T09:26:36.122Z,17.30
2018-06-13T09:29:10.393Z,17.30
2018-06-13T09:31:44.835Z,16.90
2018-06-13T09:34:19.141Z,17.40
2018-06-13T09:36:53.494Z,17.50
2018-06-13T09:39:27.726Z,17.70
2018-06-13T09:42:02.870Z,17.70
2018-06-13T09:44:37.122Z,17.60
2018-06-13T09:47:15.132Z,17.40
2018-06-13T09:49:45.736Z,17.00
2018-06-13T09:52:20.031Z,16.90
2018-06-13T09:54:54.419Z,16.70
2018-06-13T09:57:28.687Z,16.60
2018-06-13T10:00:08.499Z,16.40
2018-06-13T10:02:42.698Z,16.60
2018-06-13T10:05:17.020Z,16.40
2018-06-13T10:07:51.450Z,16.50
2018-06-13T10:10:25.690Z,16.50
2018-06-13T10:13:00.036Z,16.60
2018-06-13T10:15:34.346Z,16.90
2018-06-13T10:18:08.726Z,16.80
2018-06-13T10:20:43.089Z,16.90
2018-06-13T10:23:17.526Z,16.70
2018-06-13T10:25:51.724Z,16.80
2018-06-13T10:28:26.067Z,17.10
2018-06-13T10:31:00.258Z,17.20
2018-06-13T10:33:34.546Z,17.20
2018-06-13T10:36:08.795Z,17.30
2018-06-13T10:38:43.123Z,17.10
2018-06-13T10:41:17.441Z,17.30
2018-06-13T10:43:51.785Z,17.50
2018-06-13T10:46:26.153Z,17.40
2018-06-13T10:49:00.434Z,17.60
2018-06-13T10:51:34.735Z,17.60
2018-06-13T10:54:09.047Z,17.90
2018-06-13T10:56:43.299Z,17.60
2018-06-13T10:59:17.564Z,17.70
2018-06-13T11:01:51.726Z,17.80
2018-06-13T11:04:26.034Z,17.70
2018-06-13T11:07:00.267Z,17.40
2018-06-13T11:09:34.559Z,17.40
2018-06-13T11:12:08.949Z,17.20
2018-06-13T11:14:43.214Z,17.30
2018-06-13T11:17:17.610Z,17.00
2018-06-13T11:19:51.925Z,16.60
2018-06-13T11:22:26.080Z,16.90
2018-06-13T11:25:00.343Z,17.00
2018-06-13T11:27:34.780Z,17.10
2018-06-13T11:30:09.116Z,17.20
2018-06-13T11:32:43.437Z,17.30
2018-06-13T11:35:17.588Z,17.10
2018-06-13T11:37:52.261Z,17.10
2018-06-13T11:40:28.031Z,17.10
2018-06-13T11:43:02.415Z,17.10
2018-06-13T11:45:36.688Z,16.90
2018-06-13T11:48:11.149Z,17.10
2018-06-13T11:50:45.387Z,17.20
2018-06-13T11:53:19.685Z,17.60
2018-06-13T11:55:54.044Z,17.60
2018-06-13T11:58:28.532Z,17.70
2018-06-13T12:01:02.782Z,17.70
2018-06-13T12:03:37.310Z,17.70
2018-06-13T12:06:11.657Z,17.50
2018-06-13T12:08:46.033Z,17.70
2018-06-13T12:11:20.377Z,17.50
2018-06-13T12:13:54.645Z,17.80
2018-06-13T12:16:28.946Z,17.80
2018-06-13T12:19:03.270Z,17.90
2018-06-13T12:21:37.611Z,18.00
2018-06-13T12:24:11.964Z,17.70
2018-06-13T12:26:46.219Z,17.50
2018-06-13T12:29:20.705Z,17.40
2018-06-13T12:31:54.882Z,17.70
2018-06-13T12:34:29.023Z,17.50
2018-06-13T12:37:03.496Z,17.40
2018-06-13T12:39:38.745Z,17.80
2018-06-13T12:42:12.910Z,17.90
2018-06-13T12:44:47.331Z,18.00
2018-06-13T12:47:21.572Z,17.80
2018-06-13T12:49:55.864Z,18.00
2018-06-13T12:52:30.034Z,17.70
2018-06-13T12:55:04.498Z,17.90
2018-06-13T12:57:38.734Z,17.90
2018-06-13T13:00:13.166Z,18.20
2018-06-13T13:02:47.586Z,18.30
2018-06-13T13:05:21.914Z,18.10
2018-06-13T13:07:56.190Z,18.20
2018-06-13T13:10:30.402Z,18.30
2018-06-13T13:13:04.762Z,18.40
2018-06-13T13:15:39.220Z,18.20
2018-06-13T13:18:13.492Z,18.50
2018-06-13T13:20:47.850Z,18.40
2018-06-13T13:23:22.166Z,18.40
2018-06-13T13:25:56.481Z,18.60
2018-06-13T13:28:30.795Z,18.60
2018-06-13T13:31:05.039Z,18.20
2018-06-13T13:33:39.370Z,18.50
2018-06-13T13:36:13.679Z,18.40
2018-06-13T13:38:47.838Z,18.50
2018-06-13T13:41:22.223Z,18.30
2018-06-13T13:43:56.522Z,18.20
2018-06-13T13:46:30.779Z,18.50
2018-06-13T13:49:05.471Z,18.50
2018-06-13T13:51:39.646Z,18.60
2018-06-13T13:54:14.052Z,18.30
2018-06-13T13:56:48.314Z,18.20
2018-06-13T13:59:22.652Z,18.20
2018-06-13T14:01:56.926Z,18.20
2018-06-13T14:04:31.126Z,18.30
2018-06-13T14:07:05.484Z,18.60
2018-06-13T14:09:39.722Z,18.70
2018-06-13T14:12:14.201Z,18.50
2018-06-13T14:14:48.580Z,18.60
2018-06-13T14:17:22.914Z,18.40
2018-06-13T14:19:57.314Z,18.70
2018-06-13T14:22:31.499Z,18.40
2018-06-13T14:25:05.631Z,18.40
2018-06-13T14:27:39.956Z,18.30
2018-06-13T14:30:14.159Z,18.50
2018-06-13T14:32:48.518Z,18.30
2018-06-13T14:35:22.926Z,18.60
2018-06-13T14:37:57.187Z,18.70
2018-06-13T14:40:31.371Z,18.20
2018-06-13T14:43:05.811Z,18.30
2018-06-13T14:45:40.061Z,18.60
2018-06-13T14:48:14.291Z,18.80
2018-06-13T14:50:48.628Z,18.50
2018-06-13T14:56:02.255Z,18.80
2018-06-13T15:01:10.462Z,19.20
2018-06-13T15:03:44.707Z,18.90
2018-06-13T15:06:19.043Z,19.30
2018-06-13T15:08:53.806Z,19.30
2018-06-13T15:11:27.999Z,19.30
2018-06-13T15:14:02.288Z,19.40
2018-06-13T15:16:36.578Z,19.40
2018-06-13T15:19:10.792Z,19.30
2018-06-13T15:21:45.062Z,19.10
2018-06-13T15:24:19.358Z,18.80
2018-06-13T15:26:53.638Z,18.90
2018-06-13T15:29:27.955Z,19.00
2018-06-13T15:32:02.258Z,18.70
2018-06-13T15:34:36.582Z,18.90
2018-06-13T15:37:10.942Z,19.00
2018-06-13T15:39:45.260Z,19.00
2018-06-13T15:42:19.547Z,18.90
2018-06-13T15:44:53.740Z,19.00
2018-06-13T15:47:28.026Z,19.50
2018-06-13T15:50:02.330Z,19.80
2018-06-13T15:52:36.914Z,20.50
2018-06-13T15:55:11.215Z,20.70
2018-06-13T15:57:45.495Z,20.80
2018-06-13T16:00:19.830Z,20.70
2018-06-13T16:02:54.110Z,20.70
2018-06-13T16:05:28.319Z,20.30
2018-06-13T16:08:02.651Z,19.80
2018-06-13T16:10:36.956Z,20.00
2018-06-13T16:13:11.099Z,19.90
2018-06-13T16:15:45.412Z,20.10
2018-06-13T16:18:19.630Z,20.80
2018-06-13T16:20:53.934Z,21.20
2018-06-13T16:23:28.120Z,20.90
2018-06-13T16:26:02.371Z,20.60
2018-06-13T16:28:36.757Z,20.20
2018-06-13T16:31:11.079Z,20.40
2018-06-13T16:33:45.405Z,19.80
2018-06-13T16:36:19.696Z,20.00
2018-06-13T16:38:53.974Z,19.90
2018-06-13T16:41:28.209Z,20.20
2018-06-13T16:44:02.490Z,19.80
2018-06-13T16:46:36.862Z,20.00
2018-06-13T16:49:11.274Z,20.10
2018-06-13T16:51:50.321Z,20.00
2018-06-13T16:54:35.902Z,19.50
2018-06-13T16:57:10.235Z,19.70
2018-06-13T16:59:44.676Z,19.70
2018-06-13T17:02:19.123Z,19.70
2018-06-13T17:04:53.583Z,19.80
2018-06-13T17:07:28.011Z,19.70
2018-06-13T17:10:02.715Z,20.10
2018-06-13T17:12:36.959Z,20.30
2018-06-13T17:15:11.096Z,19.60
2018-06-13T17:17:45.541Z,19.70
2018-06-13T17:20:19.823Z,19.30
2018-06-13T17:22:54.005Z,19.40
2018-06-13T17:25:28.333Z,19.80
2018-06-13T17:28:03.382Z,19.50
2018-06-13T17:33:11.629Z,19.50
2018-06-13T17:35:45.800Z,19.50
2018-06-13T17:38:20.434Z,19.50
2018-06-13T17:40:54.584Z,19.40
2018-06-13T17:43:28.942Z,19.50
2018-06-13T17:46:03.250Z,19.50
2018-06-13T17:48:37.719Z,19.20
2018-06-13T17:53:46.095Z,19.30
2018-06-13T17:56:20.351Z,19.30
2018-06-13T17:58:54.510Z,19.30
2018-06-13T18:01:28.709Z,19.30
2018-06-13T18:04:03.088Z,19.30
2018-06-13T18:06:37.400Z,19.20
2018-06-13T18:09:11.940Z,19.20
2018-06-13T18:11:46.235Z,19.10
2018-06-13T18:14:20.527Z,19.00
2018-06-13T18:16:54.832Z,18.80
2018-06-13T18:19:29.146Z,18.70
2018-06-13T18:22:03.579Z,18.80
2018-06-13T18:24:37.728Z,18.80
2018-06-13T18:27:12.122Z,18.70
2018-06-13T18:29:46.250Z,18.70
2018-06-13T18:32:20.730Z,18.70
2018-06-13T18:34:54.943Z,18.60
2018-06-13T18:37:29.291Z,18.40
2018-06-13T18:40:03.617Z,18.30
2018-06-13T18:42:37.883Z,18.50
2018-06-13T18:45:12.166Z,18.40
2018-06-13T18:47:46.318Z,18.30
2018-06-13T18:50:20.546Z,18.20
2018-06-13T18:52:54.879Z,18.10
2018-06-13T18:55:29.180Z,18.00
2018-06-13T18:58:03.503Z,17.80
2018-06-13T19:00:37.744Z,17.60
2018-06-13T19:03:12.228Z,17.70
2018-06-13T19:05:46.422Z,17.80
2018-06-13T19:10:55.031Z,17.60
2018-06-13T19:13:29.206Z,17.60
2018-06-13T19:16:03.362Z,17.40
2018-06-13T19:18:37.576Z,17.30
2018-06-13T19:21:11.914Z,17.40
2018-06-13T19:23:46.063Z,17.50
2018-06-13T19:28:54.458Z,17.40
2018-06-13T19:31:28.714Z,17.20
2018-06-13T19:34:02.930Z,17.20
2018-06-13T19:36:37.199Z,17.20
2018-06-13T19:39:11.728Z,17.20
2018-06-13T19:41:45.986Z,17.00
2018-06-13T19:44:20.202Z,16.60
2018-06-13T19:46:58.746Z,16.70
2018-06-13T19:49:32.951Z,16.90
2018-06-13T19:52:07.339Z,16.80
2018-06-13T19:54:47.139Z,16.80
2018-06-13T19:57:21.338Z,16.70
2018-06-13T19:59:55.865Z,16.70
2018-06-13T20:02:35.408Z,16.50
2018-06-13T20:05:15.010Z,16.50
2018-06-13T20:07:49.200Z,16.40
2018-06-13T20:10:23.472Z,16.30
2018-06-13T20:17:46.873Z,16.40
2018-06-13T20:20:21.300Z,16.20
2018-06-13T20:25:35.197Z,16.10
2018-06-13T20:28:14.862Z,16.10
2018-06-13T20:30:54.572Z,15.90
2018-06-13T20:33:28.888Z,15.90
2018-06-13T20:36:03.214Z,15.90
2018-06-13T20:38:37.541Z,15.80
2018-06-13T20:41:11.719Z,15.90
2018-06-13T20:43:45.892Z,15.80
2018-06-13T20:46:20.178Z,15.70
2018-06-13T20:48:54.391Z,15.60
2018-06-13T20:51:28.670Z,15.50
2018-06-13T20:54:02.987Z,15.50
2018-06-13T20:56:37.301Z,15.40
2018-06-13T20:59:11.606Z,15.40
2018-06-13T21:01:45.838Z,15.30
2018-06-13T21:04:20.154Z,15.20
2018-06-13T21:06:54.572Z,15.20
2018-06-13T21:09:28.774Z,15.20
2018-06-13T21:12:03.230Z,15.10
2018-06-13T21:14:37.562Z,15.10
2018-06-13T21:22:20.617Z,14.90
2018-06-13T21:24:54.923Z,14.90
2018-06-13T21:27:29.216Z,14.90
2018-06-13T21:30:03.656Z,14.90
2018-06-13T21:32:37.858Z,14.80
2018-06-13T21:35:12.163Z,14.80
2018-06-13T21:37:46.518Z,14.70
2018-06-13T21:40:20.832Z,14.70
2018-06-13T21:42:55.039Z,14.60
2018-06-13T21:45:29.314Z,14.50
2018-06-13T21:48:03.568Z,14.60
2018-06-13T21:50:37.758Z,14.50
2018-06-13T21:53:12.094Z,14.50
2018-06-13T21:55:46.520Z,14.20
2018-06-13T21:58:20.660Z,14.30
2018-06-13T22:00:54.969Z,14.30
2018-06-13T22:03:29.283Z,14.40
2018-06-13T22:06:03.565Z,14.40
2018-06-13T22:08:37.866Z,14.40
2018-06-13T22:11:12.254Z,14.20
2018-06-13T22:13:46.578Z,14.20
2018-06-13T22:16:20.723Z,14.20
2018-06-13T22:18:54.919Z,14.00
2018-06-13T22:21:29.275Z,14.10
2018-06-13T22:24:03.599Z,14.20
2018-06-13T22:26:37.942Z,14.10
2018-06-13T22:29:12.378Z,14.20
2018-06-13T22:31:46.706Z,14.10
2018-06-13T22:34:21.058Z,14.00
2018-06-13T22:36:55.208Z,14.00
2018-06-13T22:39:29.719Z,14.00
2018-06-13T22:42:03.950Z,13.90
2018-06-13T22:44:38.253Z,13.90
2018-06-13T22:47:12.540Z,13.80
2018-06-13T22:49:46.864Z,13.80
2018-06-13T22:52:21.214Z,13.80
2018-06-13T22:54:56.043Z,13.90
2018-06-13T22:57:30.416Z,13.80
2018-06-13T23:00:04.827Z,13.80
2018-06-13T23:02:39.263Z,13.80
2018-06-13T23:05:13.569Z,13.70
2018-06-13T23:07:47.842Z,13.70
2018-06-13T23:10:22.459Z,13.70
2018-06-13T23:12:56.840Z,13.70
2018-06-13T23:15:31.042Z,13.70
2018-06-13T23:18:05.504Z,13.60
2018-06-13T23:20:39.691Z,13.40
2018-06-13T23:23:13.985Z,13.50
2018-06-13T23:25:48.307Z,13.50
2018-06-13T23:28:22.906Z,13.50
2018-06-13T23:30:57.138Z,13.50
2018-06-13T23:33:31.446Z,13.50
2018-06-13T23:36:05.699Z,13.40
2018-06-13T23:38:39.877Z,13.40
2018-06-13T23:41:14.240Z,13.40
2018-06-13T23:46:22.838Z,13.30
2018-06-13T23:48:57.115Z,13.30
2018-06-13T23:51:31.296Z,13.20
2018-06-13T23:54:05.569Z,13.20
2018-06-13T23:56:39.789Z,13.20
2018-06-13T23:59:14.166Z,13.20
